createdAt,value
2023-04-30T00:00:55.922Z,100043.16
2023-04-30T00:03:24.732Z,100042.13
2023-04-30T00:05:52.166Z,100046.50
2023-04-30T00:08:19.100Z,100044.59
2023-04-30T00:10:46.014Z,100040.06
2023-04-30T00:13:14.286Z,100045.25
2023-04-30T00:15:41.850Z,100048.34
2023-04-30T00:18:09.149Z,100044.19
2023-04-30T00:20:36.066Z,100050.81
2023-04-30T00:23:03.646Z,100047.94
2023-04-30T00:25:30.434Z,100047.50
2023-04-30T00:27:57.282Z,100053.31
2023-04-30T00:30:24.041Z,100055.19
2023-04-30T00:32:50.925Z,100048.75
2023-04-30T00:35:17.996Z,100054.13
2023-04-30T00:37:45.074Z,100052.50
2023-04-30T00:40:12.418Z,100043.34
2023-04-30T00:42:39.186Z,100052.50
2023-04-30T00:45:06.620Z,100056.81
2023-04-30T00:47:33.546Z,100052.06
2023-04-30T00:50:00.493Z,100058.28
2023-04-30T00:52:27.644Z,100054.97
2023-04-30T00:54:57.832Z,100054.34
2023-04-30T00:57:25.782Z,100056.41
2023-04-30T00:59:53.018Z,100063.66
2023-04-30T01:02:20.300Z,100062.00
2023-04-30T01:04:47.609Z,100057.06
2023-04-30T01:07:14.445Z,100059.09
2023-04-30T01:09:41.248Z,100060.75
2023-04-30T01:12:16.348Z,100069.66
2023-04-30T01:14:57.584Z,100074.84
2023-04-30T01:17:29.670Z,100076.91
2023-04-30T01:19:56.974Z,100081.91
2023-04-30T01:22:26.419Z,100071.91
2023-04-30T01:25:25.896Z,100083.56
2023-04-30T01:27:52.844Z,100081.50
2023-04-30T01:30:21.535Z,100082.31
2023-04-30T01:32:48.361Z,100082.94
2023-04-30T01:35:15.247Z,100078.97
2023-04-30T01:38:05.912Z,100081.84
2023-04-30T01:40:43.497Z,100088.69
2023-04-30T01:43:33.439Z,100088.88
2023-04-30T01:46:31.457Z,100093.84
2023-04-30T01:49:27.436Z,100088.91
2023-04-30T01:52:05.257Z,100093.88
2023-04-30T01:54:53.197Z,100096.16
2023-04-30T01:57:40.607Z,100101.28
2023-04-30T02:00:12.337Z,100098.38
2023-04-30T02:02:39.217Z,100104.59
2023-04-30T02:05:06.621Z,100100.59
2023-04-30T02:07:45.441Z,100103.31
2023-04-30T02:10:12.915Z,100108.09
2023-04-30T02:12:40.208Z,100109.75
2023-04-30T02:15:08.084Z,100101.66
2023-04-30T02:17:35.144Z,100101.66
2023-04-30T02:20:02.341Z,100106.63
2023-04-30T02:22:29.337Z,100100.00
2023-04-30T02:24:56.229Z,100105.38
2023-04-30T02:27:24.969Z,100108.53
2023-04-30T02:29:52.244Z,100103.72
2023-04-30T02:32:19.667Z,100102.94
2023-04-30T02:34:46.442Z,100105.19
2023-04-30T02:37:13.321Z,100105.78
2023-04-30T02:39:40.087Z,100109.50
2023-04-30T02:42:07.673Z,100105.78
2023-04-30T02:44:35.151Z,100102.50
2023-04-30T02:47:02.749Z,100109.75
2023-04-30T02:49:30.155Z,100106.66
2023-04-30T02:51:56.907Z,100100.00
2023-04-30T02:54:23.723Z,100102.69
2023-04-30T02:56:50.887Z,100096.66
2023-04-30T02:59:17.626Z,100101.66
2023-04-30T03:01:44.505Z,100100.78
2023-04-30T03:04:11.323Z,100100.78
2023-04-30T03:06:38.252Z,100100.78
2023-04-30T03:09:05.180Z,100097.25
2023-04-30T03:11:32.054Z,100100.06
2023-04-30T03:13:58.995Z,100105.22
2023-04-30T03:16:25.942Z,100097.56
2023-04-30T03:18:52.736Z,100096.94
2023-04-30T03:21:19.588Z,100093.41
2023-04-30T03:23:46.513Z,100090.34
2023-04-30T03:26:13.337Z,100094.03
2023-04-30T03:28:40.094Z,100095.03
2023-04-30T03:31:06.981Z,100103.16
2023-04-30T03:33:34.422Z,100098.94
2023-04-30T03:36:01.392Z,100102.59
2023-04-30T03:38:28.147Z,100110.03
2023-04-30T03:40:54.901Z,100105.94
2023-04-30T03:43:22.335Z,100105.47
2023-04-30T03:45:49.197Z,100104.75
2023-04-30T03:48:16.025Z,100105.41
2023-04-30T03:50:42.890Z,100102.56
2023-04-30T03:53:09.724Z,100105.47
2023-04-30T03:55:36.599Z,100100.34
2023-04-30T03:58:03.833Z,100102.56
2023-04-30T04:00:31.392Z,100100.91
2023-04-30T04:02:59.730Z,100094.06
2023-04-30T04:05:26.985Z,100099.66
2023-04-30T04:07:53.756Z,100095.09
2023-04-30T04:10:20.800Z,100095.53
2023-04-30T04:12:47.650Z,100095.91
2023-04-30T04:15:14.565Z,100095.75
2023-04-30T04:17:41.515Z,100105.03
2023-04-30T04:20:08.994Z,100107.16
2023-04-30T04:22:36.056Z,100102.41
2023-04-30T04:25:02.862Z,100103.63
2023-04-30T04:27:29.728Z,100109.19
2023-04-30T04:29:57.256Z,100106.69
2023-04-30T04:32:24.917Z,100114.59
2023-04-30T04:34:54.494Z,100108.19
2023-04-30T04:37:21.311Z,100106.50
2023-04-30T04:39:48.156Z,100114.19
2023-04-30T04:42:16.834Z,100118.81
2023-04-30T04:44:44.173Z,100108.44
2023-04-30T04:47:12.904Z,100121.69
2023-04-30T04:49:39.778Z,100120.47
2023-04-30T04:52:06.729Z,100124.19
2023-04-30T04:54:34.002Z,100126.72
2023-04-30T04:57:00.746Z,100129.44
2023-04-30T04:59:27.531Z,100127.75
2023-04-30T05:01:54.348Z,100132.94
2023-04-30T05:04:21.139Z,100125.94
2023-04-30T05:06:47.995Z,100130.91
2023-04-30T05:09:14.920Z,100134.97
2023-04-30T05:11:41.820Z,100140.41
2023-04-30T05:14:08.664Z,100134.44
2023-04-30T05:16:35.473Z,100141.88
2023-04-30T05:19:02.315Z,100142.56
2023-04-30T05:21:29.962Z,100144.91
2023-04-30T05:23:56.819Z,100141.56
2023-04-30T05:26:24.679Z,100142.59
2023-04-30T05:28:52.639Z,100139.56
2023-04-30T05:31:21.068Z,100146.22
2023-04-30T05:33:48.263Z,100144.22
2023-04-30T05:36:15.207Z,100137.19
2023-04-30T05:38:42.303Z,100142.19
2023-04-30T05:41:12.770Z,100135.13
2023-04-30T05:43:39.565Z,100153.16
2023-04-30T05:46:06.787Z,100147.31
2023-04-30T05:48:33.644Z,100147.06
2023-04-30T05:51:00.467Z,100138.00
2023-04-30T05:53:27.385Z,100137.16
2023-04-30T05:55:54.142Z,100136.41
2023-04-30T05:58:21.014Z,100145.09
2023-04-30T06:00:52.747Z,100144.22
2023-04-30T06:03:20.234Z,100143.19
2023-04-30T06:05:47.868Z,100140.97
2023-04-30T06:08:14.854Z,100129.19
2023-04-30T06:10:42.728Z,100138.25
2023-04-30T06:13:09.588Z,100131.44
2023-04-30T06:15:36.428Z,100137.81
2023-04-30T06:18:03.331Z,100144.97
2023-04-30T06:20:30.260Z,100142.50
2023-04-30T06:22:57.180Z,100140.22
2023-04-30T06:25:23.968Z,100141.28
2023-04-30T06:27:52.883Z,100140.88
2023-04-30T06:30:20.210Z,100138.97
2023-04-30T06:32:47.203Z,100146.44
2023-04-30T06:35:15.131Z,100139.84
2023-04-30T06:37:42.034Z,100145.22
2023-04-30T06:40:09.207Z,100139.81
2023-04-30T06:42:36.291Z,100141.91
2023-04-30T06:45:03.844Z,100140.88
2023-04-30T06:47:34.891Z,100150.19
2023-04-30T06:50:02.428Z,100146.88
2023-04-30T06:52:31.445Z,100158.72
2023-04-30T06:54:58.219Z,100151.44
2023-04-30T06:57:25.945Z,100152.06
2023-04-30T06:59:53.102Z,100145.16
2023-04-30T07:02:21.932Z,100148.94
2023-04-30T07:04:49.640Z,100149.31
2023-04-30T07:07:16.434Z,100145.50
2023-04-30T07:09:43.285Z,100149.91
2023-04-30T07:12:12.249Z,100143.91
2023-04-30T07:14:39.051Z,100141.97
2023-04-30T07:17:06.307Z,100143.53
2023-04-30T07:19:33.102Z,100143.44
2023-04-30T07:21:59.900Z,100150.03
2023-04-30T07:24:26.636Z,100149.03
2023-04-30T07:26:53.374Z,100147.44
2023-04-30T07:29:20.388Z,100143.63
2023-04-30T07:31:47.160Z,100136.63
2023-04-30T07:34:14.223Z,100139.69
2023-04-30T07:36:41.380Z,100135.69
2023-04-30T07:39:08.325Z,100134.22
2023-04-30T07:41:35.148Z,100134.28
2023-04-30T07:44:02.077Z,100127.31
2023-04-30T07:46:29.207Z,100124.69
2023-04-30T07:48:56.043Z,100127.09
2023-04-30T07:51:23.388Z,100119.06
2023-04-30T07:53:50.199Z,100128.16
2023-04-30T07:56:16.983Z,100119.94
2023-04-30T07:58:44.122Z,100131.88
2023-04-30T08:01:11.051Z,100130.38
2023-04-30T08:03:38.065Z,100127.75
2023-04-30T08:06:06.160Z,100129.31
2023-04-30T08:08:32.951Z,100130.53
2023-04-30T08:10:59.970Z,100136.34
2023-04-30T08:13:26.678Z,100134.59
2023-04-30T08:15:53.482Z,100137.06
2023-04-30T08:18:20.412Z,100125.00
2023-04-30T08:20:47.296Z,100127.53
2023-04-30T08:23:20.670Z,100124.69
2023-04-30T08:25:47.465Z,100131.84
2023-04-30T08:28:14.220Z,100127.38
2023-04-30T08:30:40.945Z,100130.91
2023-04-30T08:33:07.889Z,100131.69
2023-04-30T08:35:34.760Z,100127.84
2023-04-30T08:38:01.605Z,100123.81
2023-04-30T08:40:43.437Z,100122.84
2023-04-30T08:43:15.920Z,100121.28
2023-04-30T08:45:43.085Z,100124.00
2023-04-30T08:48:15.344Z,100123.22
2023-04-30T08:50:42.288Z,100129.19
2023-04-30T08:53:11.225Z,100131.84
2023-04-30T08:55:40.642Z,100121.78
2023-04-30T08:58:10.548Z,100134.28
2023-04-30T09:00:39.037Z,100134.53
2023-04-30T09:03:07.907Z,100128.66
2023-04-30T09:05:34.858Z,100127.91
2023-04-30T09:08:03.991Z,100128.94
2023-04-30T09:10:35.765Z,100117.88
2023-04-30T09:13:05.098Z,100125.69
2023-04-30T09:15:33.961Z,100125.88
2023-04-30T09:18:18.732Z,100127.06
2023-04-30T09:21:02.078Z,100127.91
2023-04-30T09:23:29.629Z,100126.81
2023-04-30T09:25:57.474Z,100126.00
2023-04-30T09:28:26.811Z,100120.41
2023-04-30T09:30:54.155Z,100125.81
2023-04-30T09:33:21.090Z,100130.97
2023-04-30T09:35:48.250Z,100134.91
2023-04-30T09:38:32.284Z,100126.19
2023-04-30T09:41:01.612Z,100117.00
2023-04-30T09:43:32.019Z,100116.50
2023-04-30T09:46:01.851Z,100117.91
2023-04-30T09:48:28.879Z,100111.91
2023-04-30T09:50:56.004Z,100105.50
2023-04-30T09:53:23.965Z,100112.53
2023-04-30T09:55:51.806Z,100106.06
2023-04-30T09:58:20.021Z,100100.75
2023-04-30T10:00:48.638Z,100100.34
2023-04-30T10:03:16.399Z,100093.59
2023-04-30T10:05:47.725Z,100101.50
2023-04-30T10:08:40.370Z,100106.72
2023-04-30T10:11:08.583Z,100093.22
2023-04-30T10:13:55.980Z,100091.28
2023-04-30T10:16:48.081Z,100086.00
2023-04-30T10:19:20.890Z,100087.78
2023-04-30T10:21:48.481Z,100074.63
2023-04-30T10:24:18.589Z,100068.09
2023-04-30T10:26:47.549Z,100070.25
2023-04-30T10:29:15.613Z,100059.94
2023-04-30T10:31:45.476Z,100058.50
2023-04-30T10:34:39.847Z,100059.88
2023-04-30T10:37:22.742Z,100051.72
2023-04-30T10:39:52.296Z,100055.78
2023-04-30T10:42:19.601Z,100041.91
2023-04-30T10:44:46.483Z,100039.28
2023-04-30T10:47:13.270Z,100034.13
2023-04-30T10:50:09.798Z,100035.97
2023-04-30T10:52:38.542Z,100039.19
2023-04-30T10:55:09.590Z,100031.66
2023-04-30T10:57:44.098Z,100035.94
2023-04-30T11:00:10.823Z,100031.03
2023-04-30T11:02:45.373Z,100030.44
2023-04-30T11:05:14.846Z,100030.03
2023-04-30T11:07:58.322Z,100017.72
2023-04-30T11:10:27.665Z,100021.50
2023-04-30T11:12:56.171Z,100014.47
2023-04-30T11:15:27.746Z,100018.97
2023-04-30T11:17:59.717Z,100014.75
2023-04-30T11:20:28.063Z,100018.63
2023-04-30T11:25:55.086Z,100008.91
2023-04-30T11:28:25.614Z,100009.06
2023-04-30T11:30:57.999Z,100004.16
2023-04-30T11:33:29.494Z,100001.31
2023-04-30T11:35:58.032Z,100005.81
2023-04-30T11:38:38.107Z,100007.69
2023-04-30T11:41:05.636Z,100008.66
2023-04-30T11:43:33.977Z,99999.81
2023-04-30T11:46:08.686Z,100004.34
2023-04-30T11:48:40.644Z,100000.94
2023-04-30T11:51:16.591Z,100000.50
2023-04-30T11:53:43.874Z,99999.50
2023-04-30T11:56:10.732Z,99987.34
2023-04-30T11:58:39.442Z,99996.31
2023-04-30T12:01:10.378Z,99994.31
2023-04-30T12:03:48.106Z,99995.22
2023-04-30T12:06:26.598Z,99988.88
2023-04-30T12:08:57.779Z,99981.31
2023-04-30T12:11:29.392Z,99976.84
2023-04-30T12:14:03.745Z,99992.94
2023-04-30T12:16:45.757Z,99985.94
2023-04-30T12:19:13.374Z,99983.16
2023-04-30T12:21:42.549Z,99972.22
2023-04-30T12:24:12.076Z,99973.38
2023-04-30T12:26:40.590Z,99970.06
2023-04-30T12:29:15.384Z,99971.25
2023-04-30T12:31:43.380Z,99971.69
2023-04-30T12:34:12.912Z,99982.34
2023-04-30T12:36:43.060Z,99972.31
2023-04-30T12:39:16.311Z,99969.66
2023-04-30T12:41:47.889Z,99970.31
2023-04-30T12:44:24.964Z,99970.31
2023-04-30T12:47:01.123Z,99958.00
2023-04-30T12:49:34.443Z,99963.44
2023-04-30T12:52:09.777Z,99944.22
2023-04-30T12:54:37.709Z,99935.81
2023-04-30T12:57:05.401Z,99943.75
2023-04-30T12:59:34.310Z,99938.16
2023-04-30T13:02:09.202Z,99944.81
2023-04-30T13:04:36.811Z,99931.81
2023-04-30T13:07:04.806Z,99929.16
2023-04-30T13:09:36.827Z,99921.28
2023-04-30T13:12:04.886Z,99922.06
2023-04-30T13:14:32.779Z,99918.53
2023-04-30T13:17:00.151Z,99923.03
2023-04-30T13:19:27.124Z,99917.38
2023-04-30T13:21:53.841Z,99919.22
2023-04-30T13:24:20.660Z,99914.44
2023-04-30T13:26:48.461Z,99916.69
2023-04-30T13:29:15.241Z,99918.31
2023-04-30T13:31:42.712Z,99920.47
2023-04-30T13:34:10.314Z,99908.13
2023-04-30T13:36:37.149Z,99909.38
2023-04-30T13:39:05.136Z,99915.94
2023-04-30T13:41:32.301Z,99906.19
2023-04-30T13:44:00.374Z,99901.31
2023-04-30T13:46:27.308Z,99901.53
2023-04-30T13:48:54.260Z,99900.97
2023-04-30T13:51:21.296Z,99891.97
2023-04-30T13:53:48.291Z,99899.91
2023-04-30T13:56:15.709Z,99896.28
2023-04-30T13:58:42.554Z,99891.94
2023-04-30T14:01:10.649Z,99885.63
2023-04-30T14:03:37.832Z,99883.50
2023-04-30T14:06:06.250Z,99884.91
2023-04-30T14:08:34.003Z,99876.28
2023-04-30T14:11:01.480Z,99866.56
2023-04-30T14:13:28.338Z,99876.00
2023-04-30T14:15:56.267Z,99880.53
2023-04-30T14:18:23.531Z,99876.84
2023-04-30T14:20:50.428Z,99874.97
2023-04-30T14:23:17.382Z,99869.31
2023-04-30T14:25:44.753Z,99868.81
2023-04-30T14:28:12.212Z,99869.78
2023-04-30T14:30:39.169Z,99868.38
2023-04-30T14:33:06.246Z,99861.75
2023-04-30T14:35:33.826Z,99859.59
2023-04-30T14:38:00.701Z,99855.81
2023-04-30T14:40:27.503Z,99852.38
2023-04-30T14:42:54.283Z,99851.78
2023-04-30T14:45:21.069Z,99838.84
2023-04-30T14:47:47.900Z,99836.09
2023-04-30T14:50:14.731Z,99840.22
2023-04-30T14:52:42.391Z,99842.59
2023-04-30T14:55:09.446Z,99839.41
2023-04-30T14:57:36.750Z,99843.22
2023-04-30T15:00:04.624Z,99836.66
2023-04-30T15:02:31.571Z,99838.41
2023-04-30T15:04:58.557Z,99833.38
2023-04-30T15:07:25.420Z,99825.59
2023-04-30T15:09:53.012Z,99830.59
2023-04-30T15:12:20.399Z,99827.31
2023-04-30T15:14:47.238Z,99830.72
2023-04-30T15:17:14.194Z,99826.22
2023-04-30T15:19:41.027Z,99816.56
2023-04-30T15:22:08.159Z,99819.88
2023-04-30T15:24:35.044Z,99808.03
2023-04-30T15:27:02.257Z,99809.47
2023-04-30T15:29:29.053Z,99804.75
2023-04-30T15:31:56.077Z,99811.38
2023-04-30T15:34:23.232Z,99809.28
2023-04-30T15:36:50.365Z,99810.31
2023-04-30T15:39:18.066Z,99806.81
2023-04-30T15:41:45.220Z,99802.16
2023-04-30T15:44:11.956Z,99803.78
2023-04-30T15:46:38.786Z,99802.13
2023-04-30T15:49:05.600Z,99792.81
2023-04-30T15:51:33.475Z,99799.66
2023-04-30T15:54:00.248Z,99796.53
2023-04-30T15:56:27.231Z,99791.97
2023-04-30T15:58:54.588Z,99789.28
2023-04-30T16:01:23.554Z,99800.09
2023-04-30T16:03:50.590Z,99800.66
2023-04-30T16:06:18.072Z,99800.91
2023-04-30T16:08:46.244Z,99800.50
2023-04-30T16:11:13.123Z,99798.81
2023-04-30T16:13:39.906Z,99796.06
2023-04-30T16:16:08.948Z,99801.41
2023-04-30T16:18:35.762Z,99797.63
2023-04-30T16:21:02.751Z,99791.09
2023-04-30T16:23:29.670Z,99789.75
2023-04-30T16:25:56.655Z,99784.06
2023-04-30T16:28:23.791Z,99785.63
2023-04-30T16:30:51.050Z,99772.06
2023-04-30T16:33:17.937Z,99779.56
2023-04-30T16:35:44.946Z,99773.38
2023-04-30T16:38:11.794Z,99771.78
2023-04-30T16:40:38.738Z,99768.75
2023-04-30T16:43:08.522Z,99762.75
2023-04-30T16:45:35.968Z,99765.66
2023-04-30T16:48:03.029Z,99765.47
2023-04-30T16:50:30.101Z,99757.84
2023-04-30T16:52:57.041Z,99761.31
2023-04-30T16:55:23.882Z,99762.00
2023-04-30T16:57:50.953Z,99760.91
2023-04-30T17:00:18.961Z,99750.34
2023-04-30T17:02:48.902Z,99750.19
2023-04-30T17:05:16.476Z,99745.59
2023-04-30T17:07:45.971Z,99743.19
2023-04-30T17:10:13.555Z,99749.38
2023-04-30T17:12:40.402Z,99745.81
2023-04-30T17:15:07.736Z,99747.00
2023-04-30T17:17:34.480Z,99740.53
2023-04-30T17:20:01.487Z,99751.56
2023-04-30T17:22:28.368Z,99745.31
2023-04-30T17:24:55.116Z,99750.78
2023-04-30T17:27:21.892Z,99745.28
2023-04-30T17:29:48.917Z,99754.81
2023-04-30T17:32:17.866Z,99751.75
2023-04-30T17:34:45.066Z,99756.34
2023-04-30T17:37:12.215Z,99745.44
2023-04-30T17:39:38.926Z,99747.81
2023-04-30T17:42:05.757Z,99753.03
2023-04-30T17:44:33.886Z,99744.59
2023-04-30T17:47:00.631Z,99752.19
2023-04-30T17:49:28.190Z,99750.31
2023-04-30T17:51:54.939Z,99752.31
2023-04-30T17:54:21.708Z,99751.19
2023-04-30T17:56:48.827Z,99749.75
2023-04-30T17:59:16.213Z,99750.56
2023-04-30T18:01:43.065Z,99748.72
2023-04-30T18:04:10.258Z,99748.00
2023-04-30T18:06:37.189Z,99755.25
2023-04-30T18:09:04.544Z,99752.28
2023-04-30T18:11:31.348Z,99741.72
2023-04-30T18:13:58.075Z,99747.31
2023-04-30T18:16:25.028Z,99741.06
2023-04-30T18:18:51.866Z,99742.53
2023-04-30T18:21:18.887Z,99746.16
2023-04-30T18:23:45.752Z,99744.91
2023-04-30T18:26:12.502Z,99744.16
2023-04-30T18:28:39.461Z,99746.19
2023-04-30T18:31:06.339Z,99749.19
2023-04-30T18:33:33.404Z,99738.69
2023-04-30T18:36:05.359Z,99742.03
2023-04-30T18:38:32.669Z,99737.78
2023-04-30T18:41:00.350Z,99746.09
2023-04-30T18:43:27.147Z,99736.44
2023-04-30T18:45:53.911Z,99747.66
2023-04-30T18:48:23.151Z,99746.47
2023-04-30T18:50:50.303Z,99747.41
2023-04-30T18:53:17.936Z,99745.69
2023-04-30T18:55:45.443Z,99754.41
2023-04-30T18:58:12.468Z,99752.41
2023-04-30T19:00:43.391Z,99760.56
2023-04-30T19:03:10.722Z,99751.47
2023-04-30T19:05:38.016Z,99756.44
2023-04-30T19:08:04.890Z,99759.13
2023-04-30T19:10:31.695Z,99765.84
2023-04-30T19:12:58.736Z,99762.69
2023-04-30T19:15:25.947Z,99764.66
2023-04-30T19:17:52.794Z,99765.69
2023-04-30T19:20:19.570Z,99761.75
2023-04-30T19:22:47.949Z,99762.34
2023-04-30T19:25:15.963Z,99758.22
2023-04-30T19:27:44.480Z,99756.09
2023-04-30T19:30:12.238Z,99760.69
2023-04-30T19:32:39.097Z,99760.94
2023-04-30T19:35:06.536Z,99763.81
2023-04-30T19:37:33.333Z,99763.00
2023-04-30T19:40:00.014Z,99772.28
2023-04-30T19:42:26.919Z,99773.22
2023-04-30T19:44:54.491Z,99774.13
2023-04-30T19:47:23.032Z,99782.56
2023-04-30T19:49:49.763Z,99775.84
2023-04-30T19:52:16.566Z,99772.28
2023-04-30T19:54:48.696Z,99783.66
2023-04-30T19:57:15.601Z,99779.06
2023-04-30T19:59:42.337Z,99773.28
2023-04-30T20:02:09.780Z,99782.44
2023-04-30T20:04:37.349Z,99783.66
2023-04-30T20:07:04.752Z,99781.47
2023-04-30T20:09:31.559Z,99786.50
2023-04-30T20:11:58.421Z,99779.22
2023-04-30T20:14:25.345Z,99794.03
2023-04-30T20:16:54.574Z,99785.00
2023-04-30T20:19:22.370Z,99792.06
2023-04-30T20:21:49.810Z,99782.78
2023-04-30T20:24:16.700Z,99781.56
2023-04-30T20:26:43.824Z,99780.13
2023-04-30T20:29:10.989Z,99785.63
2023-04-30T20:31:37.961Z,99793.13
2023-04-30T20:34:05.402Z,99783.28
2023-04-30T20:36:32.711Z,99784.53
2023-04-30T20:38:59.534Z,99780.47
2023-04-30T20:41:26.865Z,99780.47
2023-04-30T20:43:54.324Z,99783.00
2023-04-30T20:46:24.140Z,99785.56
2023-04-30T20:48:51.609Z,99792.25
2023-04-30T20:51:18.802Z,99798.13
2023-04-30T20:53:45.764Z,99795.47
2023-04-30T20:56:12.671Z,99786.16
2023-04-30T20:58:39.588Z,99792.22
2023-04-30T21:01:07.681Z,99800.38
2023-04-30T21:03:34.671Z,99804.72
2023-04-30T21:06:01.535Z,99806.22
2023-04-30T21:08:28.362Z,99805.91
2023-04-30T21:10:55.260Z,99807.56
2023-04-30T21:13:22.265Z,99808.88
2023-04-30T21:15:53.580Z,99802.91
2023-04-30T21:18:20.422Z,99803.84
2023-04-30T21:20:47.480Z,99806.97
2023-04-30T21:23:14.849Z,99809.50
2023-04-30T21:25:41.571Z,99809.91
2023-04-30T21:28:08.320Z,99801.66
2023-04-30T21:30:36.804Z,99808.78
2023-04-30T21:33:04.984Z,99806.72
2023-04-30T21:35:33.264Z,99803.00
2023-04-30T21:38:00.181Z,99810.88
2023-04-30T21:40:27.134Z,99811.72
2023-04-30T21:42:54.192Z,99813.44
2023-04-30T21:45:21.251Z,99805.38
2023-04-30T21:47:48.858Z,99811.34
2023-04-30T21:50:15.695Z,99808.91
2023-04-30T21:52:42.602Z,99813.88
2023-04-30T21:55:09.951Z,99807.66
2023-04-30T21:57:36.713Z,99818.28
2023-04-30T22:00:06.909Z,99813.28
2023-04-30T22:02:33.702Z,99816.88
2023-04-30T22:05:01.409Z,99820.19
2023-04-30T22:07:28.379Z,99819.31
2023-04-30T22:09:55.368Z,99815.84
2023-04-30T22:12:25.252Z,99816.69
2023-04-30T22:14:55.638Z,99812.97
2023-04-30T22:17:22.985Z,99809.41
2023-04-30T22:19:49.818Z,99819.72
2023-04-30T22:22:16.868Z,99816.06
2023-04-30T22:24:43.719Z,99809.03
2023-04-30T22:27:10.467Z,99807.34
2023-04-30T22:29:37.292Z,99815.09
2023-04-30T22:32:04.962Z,99801.56
2023-04-30T22:34:39.084Z,99809.47
2023-04-30T22:37:06.590Z,99809.28
2023-04-30T22:39:33.595Z,99806.38
2023-04-30T22:42:00.474Z,99810.34
2023-04-30T22:44:27.401Z,99805.38
2023-04-30T22:46:57.113Z,99809.13
2023-04-30T22:49:31.711Z,99803.34
2023-04-30T22:51:59.123Z,99809.97
2023-04-30T22:54:26.066Z,99813.28
2023-04-30T22:56:52.813Z,99806.44
2023-04-30T22:59:19.544Z,99809.75
2023-04-30T23:01:46.313Z,99805.00
2023-04-30T23:04:13.937Z,99811.84
2023-04-30T23:06:41.722Z,99814.16
2023-04-30T23:09:08.992Z,99814.34
2023-04-30T23:11:35.921Z,99816.19
2023-04-30T23:14:02.765Z,99812.06
2023-04-30T23:16:29.528Z,99813.91
2023-04-30T23:18:56.934Z,99811.22
2023-04-30T23:21:23.664Z,99807.44
2023-04-30T23:23:50.604Z,99807.91
2023-04-30T23:26:17.542Z,99807.06
2023-04-30T23:28:44.298Z,99803.13
2023-04-30T23:31:11.062Z,99809.16
2023-04-30T23:33:38.344Z,99806.66
2023-04-30T23:36:05.452Z,99803.31
2023-04-30T23:38:32.364Z,99802.06
2023-04-30T23:40:59.437Z,99795.38
2023-04-30T23:43:26.128Z,99802.81
2023-04-30T23:45:52.907Z,99794.91
2023-04-30T23:48:19.669Z,99792.41
2023-04-30T23:50:47.438Z,99795.56
2023-04-30T23:53:17.362Z,99789.97
2023-04-30T23:55:44.272Z,99780.25
2023-04-30T23:58:11.106Z,99786.28
